Time;durP1;ratioP1;P1;durP2;ratioP2;P2;SDS_P1;SDS_P2;PMS_P1;PMS_P2;Temp;Humidity;BMP_temperature;BMP_pressure;BME280_temperature;BME280_humidity;BME280_pressure;Samples;Min_cycle;Max_cycle;Signal;HPM_P1;HPM_P2
2021/03/19 00:01:54;;;;;;;34.23;16.53;;;;;;;2.18;76.92;100177.28;1698937;84;22368;-72
2021/03/19 00:04:19;;;;;;;33.23;16.47;;;;;;;2.10;77.10;100179.91;1698749;84;21395;-72
2021/03/19 00:06:45;;;;;;;31.17;16.30;;;;;;;2.19;76.81;100176.33;1699802;82;20954;-72
2021/03/19 00:09:11;;;;;;;36.90;17.37;;;;;;;2.28;76.56;100175.72;1712212;82;21667;-71
2021/03/19 00:11:36;;;;;;;34.87;16.93;;;;;;;2.16;76.55;100172.17;1734679;81;24646;-72
2021/03/19 00:14:03;;;;;;;35.33;16.73;;;;;;;2.00;77.09;100167.12;1734353;81;25281;-72
2021/03/19 00:16:29;;;;;;;37.63;17.15;;;;;;;2.02;77.07;100171.78;1735731;81;21343;-71
2021/03/19 00:18:55;;;;;;;37.87;16.87;;;;;;;1.91;77.13;100172.93;1733352;81;21065;-71
2021/03/19 00:21:21;;;;;;;37.40;17.10;;;;;;;1.98;77.35;100167.22;1734346;81;20918;-71
2021/03/19 00:23:48;;;;;;;36.40;16.93;;;;;;;1.89;77.13;100170.42;1734114;81;24008;-70
2021/03/19 00:26:13;;;;;;;32.17;15.30;;;;;;;1.77;77.47;100173.38;1735179;81;21234;-72
2021/03/19 00:28:39;;;;;;;32.57;17.07;;;;;;;1.71;77.74;100173.77;1734081;81;21228;-72
2021/03/19 00:31:05;;;;;;;35.30;16.60;;;;;;;1.68;77.81;100171.81;1734486;81;21247;-71
2021/03/19 00:33:31;;;;;;;34.30;14.37;;;;;;;1.48;78.26;100171.33;1734949;81;21052;-72
2021/03/19 00:35:57;;;;;;;33.63;16.77;;;;;;;1.45;78.40;100168.09;1736094;81;22986;-71
2021/03/19 00:38:22;;;;;;;37.63;16.13;;;;;;;1.48;78.29;100161.40;1733550;81;22331;-72
2021/03/19 00:40:48;;;;;;;34.57;16.80;;;;;;;1.44;78.26;100162.04;1737339;81;21810;-72
2021/03/19 00:43:15;;;;;;;39.83;19.57;;;;;;;1.34;78.37;100160.49;1736128;81;21039;-72
2021/03/19 00:45:41;;;;;;;44.88;20.48;;;;;;;1.15;79.11;100153.46;1735545;81;21652;-72
2021/03/19 00:48:07;;;;;;;41.70;19.47;;;;;;;1.20;78.90;100155.33;1735136;82;21236;-70
2021/03/19 00:50:38;;;;;;;42.90;21.93;;;;;;;1.19;78.77;100152.34;1735020;81;21739;-72
2021/03/19 00:53:04;;;;;;;42.98;22.10;;;;;;;1.19;78.89;100152.34;1734884;81;22690;-71
2021/03/19 00:55:30;;;;;;;44.75;22.62;;;;;;;0.98;78.91;100129.36;1734697;81;21187;-70
2021/03/19 00:57:56;;;;;;;49.08;25.40;;;;;;;0.95;79.20;100146.89;1709764;82;34359;-70
2021/03/19 01:00:25;;;;;;;51.13;24.60;;;;;;;0.79;80.00;100141.80;1734769;81;21477;-71
2021/03/19 01:02:51;;;;;;;51.98;24.10;;;;;;;0.88;79.53;100149.05;1735029;81;21191;-70
2021/03/19 01:05:21;;;;;;;52.93;23.70;;;;;;;0.75;79.88;100140.34;1734832;81;21093;-70
2021/03/19 01:07:47;;;;;;;41.60;20.65;;;;;;;0.59;80.25;100149.50;1733984;81;21215;-70
2021/03/19 01:10:18;;;;;;;42.97;19.47;;;;;;;0.68;79.84;100142.45;1711747;82;21043;-70
2021/03/19 01:12:43;;;;;;;44.23;21.05;;;;;;;0.59;80.16;100141.27;1698921;83;21446;-70
2021/03/19 01:15:10;;;;;;;47.23;20.43;;;;;;;0.52;80.51;100139.48;1699373;84;21397;-70
2021/03/19 01:17:36;;;;;;;47.65;21.37;;;;;;;0.41;80.88;100141.06;1700276;84;21501;-70
2021/03/19 01:20:06;;;;;;;49.13;21.57;;;;;;;0.32;80.98;100138.06;1699407;82;20949;-70
2021/03/19 01:22:32;;;;;;;40.63;18.37;;;;;;;0.33;80.86;100139.75;1700770;83;21215;-70
2021/03/19 01:24:57;;;;;;;45.23;20.33;;;;;;;0.17;81.22;100144.16;1699696;84;20945;-69
2021/03/19 01:27:23;;;;;;;47.93;21.63;;;;;;;0.16;81.55;100145.11;1700238;84;20941;-70
2021/03/19 01:29:49;;;;;;;49.03;21.50;;;;;;;0.09;81.74;100147.67;1700316;82;21474;-70
2021/03/19 01:32:14;;;;;;;44.13;18.70;;;;;;;0.04;81.79;100149.72;1699406;82;21926;-70
2021/03/19 01:34:40;;;;;;;43.83;19.23;;;;;;;-0.07;81.93;100149.86;1699892;82;21032;-70
2021/03/19 01:37:06;;;;;;;40.53;17.87;;;;;;;-0.08;82.00;100144.31;1699273;82;21507;-70
2021/03/19 01:39:32;;;;;;;42.20;18.23;;;;;;;0.02;81.95;100151.55;1699264;82;21022;-70
2021/03/19 01:45:01;;;;;;;43.70;20.63;;;;;;;0.16;81.55;100138.62;1859211;75;22609;-70
2021/03/19 01:48:23;;;;;;;46.48;18.70;;;;;;;0.22;81.13;100153.84;1828359;77;21189;-71
2021/03/19 01:51:45;;;;;;;44.88;19.23;;;;;;;0.23;80.65;100145.10;1825484;77;21219;-70
2021/03/19 01:55:07;;;;;;;38.33;17.07;;;;;;;0.21;80.62;100150.86;1828673;77;21017;-70
2021/03/19 01:58:29;;;;;;;39.42;16.57;;;;;;;0.20;80.76;100141.86;1825145;77;21168;-69
2021/03/19 02:01:51;;;;;;;40.85;17.48;;;;;;;0.14;80.64;100145.64;1828889;77;21179;-70
2021/03/19 02:05:13;;;;;;;35.92;15.80;;;;;;;-0.08;81.09;100154.70;1825879;77;21606;-70
2021/03/19 02:08:35;;;;;;;40.85;17.70;;;;;;;-0.10;80.96;100151.33;1829140;77;21527;-69
2021/03/19 02:11:57;;;;;;;34.27;15.53;;;;;;;-0.17;81.19;100148.73;1826355;77;21360;-70
2021/03/19 02:15:19;;;;;;;38.48;16.80;;;;;;;-0.18;81.22;100145.75;1828969;77;21181;-70
2021/03/19 02:18:41;;;;;;;32.50;15.25;;;;;;;-0.21;81.43;100142.86;1829265;77;21155;-71
2021/03/19 02:22:03;;;;;;;34.45;15.32;;;;;;;-0.22;81.47;100142.50;1829735;77;21135;-70
2021/03/19 02:25:08;;;;;;;36.95;16.57;;;;;;;-0.16;81.20;100141.77;1832309;77;21607;-70
2021/03/19 02:28:30;;;;;;;37.05;15.53;;;;;;;-0.22;81.33;100145.54;1806094;77;21585;-70
2021/03/19 02:31:11;;;;;;;39.88;15.93;;;;;;;-0.23;81.04;100139.52;1827791;77;21179;-70
2021/03/19 02:33:49;;;;;;;34.63;16.17;;;;;;;0.11;79.86;100144.52;1831012;77;21187;-70
2021/03/19 02:36:18;;;;;;;40.08;16.25;;;;;;;0.13;79.51;100147.88;1825741;77;21238;-71
2021/03/19 02:38:44;;;;;;;38.60;17.55;;;;;;;0.06;79.42;100151.75;1830032;77;21337;-70
2021/03/19 02:41:10;;;;;;;36.33;16.93;;;;;;;-0.04;79.64;100150.16;1826026;77;21033;-70
2021/03/19 02:43:36;;;;;;;39.27;16.83;;;;;;;0.00;79.36;100154.26;1822858;76;21631;-70
2021/03/19 02:46:01;;;;;;;32.53;15.47;;;;;;;0.09;79.28;100158.06;1820149;77;22398;-70
2021/03/19 02:48:27;;;;;;;40.97;16.70;;;;;;;-0.04;79.48;100158.77;1813873;77;21105;-70
2021/03/19 02:50:53;;;;;;;34.00;15.40;;;;;;;-0.04;79.56;100156.64;1816311;77;21291;-70
2021/03/19 02:53:23;;;;;;;35.67;17.10;;;;;;;-0.11;79.65;100161.36;1814750;77;22573;-70
2021/03/19 02:55:49;;;;;;;38.23;16.70;;;;;;;-0.11;79.90;100161.36;1814173;77;21233;-72
2021/03/19 02:58:15;;;;;;;36.35;16.70;;;;;;;-0.08;79.75;100162.48;1816553;77;21243;-71
2021/03/19 03:00:41;;;;;;;42.17;17.17;;;;;;;-0.05;79.94;100157.12;1814676;77;21026;-71
2021/03/19 03:03:06;;;;;;;38.90;17.77;;;;;;;0.01;79.83;100160.27;1816804;77;21583;-71
2021/03/19 03:05:32;;;;;;;44.47;18.43;;;;;;;-0.05;79.94;100168.80;1816637;77;20937;-71
2021/03/19 03:07:58;;;;;;;35.67;16.43;;;;;;;-0.09;79.83;100165.16;1816147;77;21029;-70
2021/03/19 03:10:25;;;;;;;39.37;16.80;;;;;;;0.15;79.44;100165.50;1815721;77;20950;-70
2021/03/19 03:12:51;;;;;;;39.05;17.90;;;;;;;0.06;79.51;100162.13;1816602;77;21196;-70
2021/03/19 03:15:18;;;;;;;44.67;18.53;;;;;;;0.23;78.74;100169.77;1818898;77;21409;-70
2021/03/19 03:17:44;;;;;;;39.25;17.82;;;;;;;-0.02;79.02;100169.92;1817873;77;21475;-71
2021/03/19 03:20:18;;;;;;;42.43;18.77;;;;;;;0.02;79.49;100168.41;1816087;77;21026;-71
2021/03/19 03:22:44;;;;;;;38.55;18.20;;;;;;;-0.02;79.30;100166.03;1813695;77;21240;-72
2021/03/19 03:25:12;;;;;;;40.50;18.27;;;;;;;0.06;79.04;100164.26;1812066;77;21021;-69
2021/03/19 03:27:38;;;;;;;42.25;18.45;;;;;;;-0.01;79.09;100160.36;1820359;77;21597;-70
2021/03/19 03:30:08;;;;;;;46.30;21.20;;;;;;;-0.17;79.69;100168.20;1822296;77;21217;-72
2021/03/19 03:32:35;;;;;;;42.43;19.15;;;;;;;-0.32;80.24;100175.55;1814752;77;21205;-71
2021/03/19 03:35:00;;;;;;;39.90;18.10;;;;;;;-0.51;80.96;100177.86;1815122;77;21169;-70
2021/03/19 03:37:26;;;;;;;41.03;18.67;;;;;;;-0.39;81.00;100184.97;1818599;77;21403;-69
2021/03/19 03:39:52;;;;;;;40.97;18.07;;;;;;;-0.29;80.85;100168.89;1816446;77;21372;-69
2021/03/19 03:42:18;;;;;;;40.93;18.57;;;;;;;-0.32;81.11;100175.55;1817181;77;21061;-68
2021/03/19 03:44:43;;;;;;;33.20;16.30;;;;;;;-0.41;81.68;100188.55;1816306;77;21269;-68
2021/03/19 03:47:09;;;;;;;41.57;18.07;;;;;;;-0.23;81.09;100176.33;1808503;78;21627;-69
2021/03/19 03:49:35;;;;;;;38.20;17.25;;;;;;;-0.32;81.40;100184.62;1805533;78;21152;-69
2021/03/19 03:52:01;;;;;;;39.50;17.37;;;;;;;-0.04;80.75;100176.11;1806232;78;21624;-69
2021/03/19 03:54:28;;;;;;;34.93;16.67;;;;;;;0.11;80.40;100184.77;1804775;78;20986;-69
2021/03/19 03:56:54;;;;;;;39.35;17.32;;;;;;;0.10;80.26;100180.52;1808613;77;21807;-70
2021/03/19 03:59:19;;;;;;;43.93;17.17;;;;;;;0.17;79.98;100181.81;1807043;78;20944;-70
2021/03/19 04:01:45;;;;;;;37.07;16.90;;;;;;;0.13;80.21;100182.94;1807186;78;20952;-70
2021/03/19 04:04:15;;;;;;;36.00;16.33;;;;;;;0.27;79.80;100181.66;1812496;78;21057;-70
2021/03/19 04:06:40;;;;;;;37.15;16.60;;;;;;;0.23;79.68;100174.97;1806524;78;21114;-70
2021/03/19 04:09:06;;;;;;;38.90;17.63;;;;;;;0.34;79.29;100182.13;1803188;78;21035;-70
2021/03/19 04:11:31;;;;;;;34.10;15.83;;;;;;;0.40;79.19;100180.48;1807647;78;21895;-70
2021/03/19 04:13:57;;;;;;;37.57;16.73;;;;;;;0.46;79.02;100181.89;1805518;78;20901;-70
2021/03/19 04:16:23;;;;;;;36.47;15.83;;;;;;;0.51;78.83;100174.64;1804537;78;21344;-70
2021/03/19 04:18:49;;;;;;;37.53;17.60;;;;;;;0.39;79.10;100177.97;1808114;78;20944;-70
2021/03/19 04:21:14;;;;;;;39.23;17.70;;;;;;;0.40;79.23;100188.27;1806903;78;21470;-70
2021/03/19 04:23:43;;;;;;;42.33;16.57;;;;;;;0.65;78.31;100181.18;1806850;78;20915;-69
2021/03/19 04:26:30;;;;;;;40.95;18.05;;;;;;;0.61;78.06;100187.47;1807821;78;21231;-69
2021/03/19 04:28:56;;;;;;;40.03;17.55;;;;;;;0.58;78.75;100185.53;1807632;77;22240;-70
2021/03/19 04:31:23;;;;;;;38.23;17.73;;;;;;;0.61;78.53;100183.58;1802628;78;21213;-69
2021/03/19 04:33:48;;;;;;;44.05;18.82;;;;;;;0.73;78.04;100184.62;1810243;78;21594;-70
2021/03/19 04:36:40;;;;;;;36.77;17.47;;;;;;;0.80;77.89;100182.48;1806714;78;21592;-70
2021/03/19 04:39:05;;;;;;;37.50;17.85;;;;;;;0.78;77.59;100186.91;1808773;78;21213;-69
2021/03/19 04:41:31;;;;;;;40.48;17.87;;;;;;;0.76;77.48;100189.60;1807594;77;22121;-70
2021/03/19 04:43:58;;;;;;;41.47;17.83;;;;;;;0.87;77.11;100188.95;1802321;78;21014;-69
2021/03/19 04:46:23;;;;;;;38.23;16.73;;;;;;;0.76;77.16;100181.80;1777478;78;21216;-70
2021/03/19 04:48:49;;;;;;;39.77;17.70;;;;;;;0.76;77.39;100184.88;1777857;78;21663;-70
2021/03/19 04:51:15;;;;;;;40.60;17.87;;;;;;;0.71;77.53;100186.02;1783013;79;22608;-70
2021/03/19 04:53:41;;;;;;;41.70;17.80;;;;;;;0.82;77.18;100189.23;1788187;79;21974;-70
2021/03/19 04:56:06;;;;;;;39.17;17.90;;;;;;;0.78;77.36;100180.41;1794587;78;20991;-69
2021/03/19 04:58:32;;;;;;;42.93;17.93;;;;;;;0.75;77.35;100189.72;1794704;78;20999;-69
2021/03/19 05:00:58;;;;;;;43.47;18.13;;;;;;;0.73;77.56;100183.77;1786280;79;20940;-69
2021/03/19 05:03:23;;;;;;;38.90;18.40;;;;;;;0.77;77.44;100186.08;1795186;77;21562;-70
2021/03/19 05:05:49;;;;;;;41.17;16.07;;;;;;;0.85;77.35;100183.02;1790078;78;21567;-70
2021/03/19 05:08:15;;;;;;;36.30;17.93;;;;;;;0.86;77.25;100184.70;1792839;77;20924;-70
2021/03/19 05:10:41;;;;;;;35.77;16.47;;;;;;;0.90;77.26;100183.57;1798198;77;20922;-70
2021/03/19 05:13:07;;;;;;;36.07;17.57;;;;;;;0.89;77.27;100185.82;1798941;77;21019;-70
2021/03/19 05:15:38;;;;;;;39.83;17.12;;;;;;;0.88;77.45;100186.73;1787125;78;21173;-70
2021/03/19 05:18:03;;;;;;;39.63;17.05;;;;;;;0.98;77.31;100189.16;1800508;77;21220;-70
2021/03/19 05:20:29;;;;;;;36.88;17.55;;;;;;;0.98;77.31;100189.16;1796172;77;21234;-70
2021/03/19 05:22:55;;;;;;;39.60;15.97;;;;;;;1.06;77.15;100191.30;1798203;77;21121;-71
2021/03/19 05:25:25;;;;;;;43.80;17.53;;;;;;;1.06;77.14;100186.92;1808493;77;21693;-70
2021/03/19 05:27:52;;;;;;;41.80;17.92;;;;;;;1.03;77.25;100191.00;1797495;77;21169;-71
2021/03/19 05:30:20;;;;;;;42.73;17.70;;;;;;;1.12;77.51;100184.86;1791012;78;21577;-71
2021/03/19 05:32:46;;;;;;;37.95;18.15;;;;;;;1.19;77.36;100184.86;1797863;77;21578;-71
2021/03/19 05:35:12;;;;;;;36.27;17.83;;;;;;;1.18;77.27;100184.03;1795533;77;21013;-70
2021/03/19 05:37:38;;;;;;;37.88;16.75;;;;;;;1.25;77.47;100189.20;1796275;77;21196;-71
2021/03/19 05:40:11;;;;;;;39.03;17.60;;;;;;;1.35;77.13;100188.64;1795915;79;21200;-71
2021/03/19 05:42:37;;;;;;;40.03;18.10;;;;;;;1.33;77.09;100188.73;1790235;78;21193;-70
2021/03/19 05:45:20;;;;;;;35.00;17.43;;;;;;;1.20;77.23;100193.05;1787525;79;21077;-70
2021/03/19 05:47:46;;;;;;;33.30;16.37;;;;;;;1.23;77.71;100196.76;1798270;78;21178;-70
2021/03/19 05:50:31;;;;;;;36.70;16.53;;;;;;;1.24;77.55;100190.16;1795198;78;20935;-70
2021/03/19 05:53:14;;;;;;;35.83;16.73;;;;;;;1.26;77.35;100192.67;1793850;79;21208;-69
2021/03/19 05:55:39;;;;;;;33.00;15.38;;;;;;;1.31;77.53;100193.20;1791646;79;21526;-70
2021/03/19 05:58:24;;;;;;;32.03;15.57;;;;;;;1.47;77.16;100190.95;1800185;77;20930;-70
2021/03/19 06:00:55;;;;;;;37.88;17.20;;;;;;;1.43;77.33;100192.44;1786316;79;21124;-69
2021/03/19 06:03:21;;;;;;;34.50;16.52;;;;;;;1.30;77.29;100198.03;1792494;79;21599;-70
2021/03/19 06:06:01;;;;;;;34.80;16.00;;;;;;;1.33;77.76;100199.14;1784872;79;21006;-69
2021/03/19 06:08:32;;;;;;;30.90;15.78;;;;;;;1.12;78.37;100200.47;1786517;79;21399;-69
2021/03/19 06:11:10;;;;;;;34.88;16.97;;;;;;;1.23;78.32;100196.76;1788551;79;21556;-70
2021/03/19 06:13:45;;;;;;;39.42;16.73;;;;;;;1.23;78.32;100196.76;1796929;78;21172;-69
2021/03/19 06:16:42;;;;;;;31.87;14.25;;;;;;;1.21;78.27;100202.50;1800002;79;21184;-69
2021/03/19 06:19:36;;;;;;;27.22;13.45;;;;;;;1.20;78.28;100202.15;1791636;78;21537;-71
2021/03/19 06:22:17;;;;;;;38.17;16.60;;;;;;;1.13;78.70;100207.34;1793842;79;21190;-70
2021/03/19 06:24:43;;;;;;;36.83;17.02;;;;;;;1.23;78.71;100208.46;1797683;79;21197;-71
2021/03/19 06:27:26;;;;;;;38.70;18.02;;;;;;;1.17;79.04;100211.44;1794608;79;21179;-72
2021/03/19 06:29:58;;;;;;;36.10;16.07;;;;;;;1.16;79.27;100209.76;1800412;78;21110;-71
2021/03/19 06:32:29;;;;;;;36.93;17.12;;;;;;;1.26;78.89;100208.27;1797240;78;21159;-71
2021/03/19 06:35:16;;;;;;;37.48;15.72;;;;;;;1.39;78.80;100211.77;1795744;78;21337;-71
2021/03/19 06:37:46;;;;;;;45.67;19.70;;;;;;;1.45;78.45;100213.64;1792550;78;21162;-71
2021/03/19 06:40:38;;;;;;;38.58;18.85;;;;;;;1.31;79.43;100216.62;1795401;78;21180;-73
2021/03/19 06:43:17;;;;;;;37.40;18.30;;;;;;;1.39;79.51;100220.05;1797278;79;21241;-72
2021/03/19 06:45:43;;;;;;;42.30;19.52;;;;;;;1.34;79.64;100220.81;1806779;78;21166;-72
2021/03/19 06:48:32;;;;;;;38.65;19.52;;;;;;;1.31;80.08;100221.00;1809824;78;21224;-71
2021/03/19 06:50:57;;;;;;;36.00;17.92;;;;;;;1.36;80.09;100214.56;1803735;77;21216;-71
2021/03/19 06:53:27;;;;;;;45.97;20.70;;;;;;;1.42;79.67;100219.38;1804347;78;21002;-73
2021/03/19 06:55:56;;;;;;;42.23;19.02;;;;;;;1.42;79.76;100219.38;1816644;78;21211;-72
2021/03/19 06:58:45;;;;;;;36.90;17.15;;;;;;;1.56;79.57;100212.48;1808045;78;21202;-70
2021/03/19 07:01:35;;;;;;;39.65;17.35;;;;;;;1.72;78.87;100207.95;1789646;78;21401;-70
2021/03/19 07:04:33;;;;;;;29.52;14.53;;;;;;;1.85;78.76;100212.38;1794991;78;21631;-71
2021/03/19 07:07:33;;;;;;;36.25;17.15;;;;;;;1.79;78.34;100209.25;1778282;78;22686;-70
2021/03/19 07:10:04;;;;;;;34.85;16.17;;;;;;;1.70;79.07;100212.44;1803084;77;21188;-73
2021/03/19 07:13:13;;;;;;;29.02;14.40;;;;;;;1.93;78.68;100210.97;1796464;77;21193;-72
2021/03/19 07:16:14;;;;;;;27.42;15.25;;;;;;;2.17;78.12;100213.37;1830011;77;22411;-72
2021/03/19 07:19:10;;;;;;;35.28;15.70;;;;;;;2.28;77.48;100206.98;1827207;77;21211;-72
2021/03/19 07:21:59;;;;;;;29.77;14.43;;;;;;;2.47;76.78;100211.35;1794458;77;22765;-72
2021/03/19 07:25:05;;;;;;;30.05;15.30;;;;;;;2.53;75.72;100207.95;1752980;80;21231;-71
2021/03/19 07:27:52;;;;;;;27.95;14.30;;;;;;;2.54;76.03;100214.85;1836173;77;21086;-70
2021/03/19 07:31:05;;;;;;;34.98;15.60;;;;;;;2.58;75.51;100219.76;1842609;77;21611;-70
2021/03/19 07:34:01;;;;;;;28.95;13.15;;;;;;;2.60;75.60;100217.05;1835392;77;21198;-70
2021/03/19 07:37:06;;;;;;;29.05;13.32;;;;;;;2.72;75.40;100218.83;1831071;77;21197;-71
2021/03/19 07:40:14;;;;;;;27.32;13.25;;;;;;;2.76;75.12;100215.05;1834957;77;21193;-71
2021/03/19 07:43:01;;;;;;;25.17;12.95;;;;;;;2.90;75.11;100213.30;1828169;77;21674;-70
2021/03/19 07:45:47;;;;;;;23.67;12.83;;;;;;;2.77;74.87;100193.27;1837165;77;21254;-71
2021/03/19 07:48:57;;;;;;;28.17;13.25;;;;;;;2.67;74.55;100223.50;1839351;77;21180;-70
2021/03/19 07:51:33;;;;;;;27.00;11.80;;;;;;;2.72;74.71;100219.28;1833434;77;21188;-71
2021/03/19 07:54:15;;;;;;;15.45;8.35;;;;;;;2.96;73.66;100215.48;1821735;77;21199;-73
2021/03/19 07:57:03;;;;;;;16.00;8.53;;;;;;;2.84;71.32;100214.09;1837202;77;21658;-72
2021/03/19 08:00:02;;;;;;;19.55;9.45;;;;;;;3.04;71.58;100218.38;1808888;77;21201;-69
2021/03/19 08:03:08;;;;;;;24.57;12.23;;;;;;;3.04;72.31;100217.91;1794279;77;21183;-71
2021/03/19 08:05:47;;;;;;;27.10;14.07;;;;;;;3.05;73.37;100222.67;1826149;77;21576;-72
2021/03/19 08:08:36;;;;;;;27.67;14.73;;;;;;;2.90;73.69;100211.98;1831343;77;21207;-71
2021/03/19 08:11:22;;;;;;;28.20;14.45;;;;;;;3.18;73.08;100215.64;1832854;76;21213;-71
2021/03/19 08:14:24;;;;;;;28.73;15.55;;;;;;;3.29;72.36;100217.98;1835677;77;21228;-68
2021/03/19 08:17:29;;;;;;;30.77;16.07;;;;;;;3.02;73.33;100222.88;1825075;77;21209;-70
2021/03/19 08:20:09;;;;;;;31.52;16.42;;;;;;;2.74;73.74;100223.46;1776345;77;21240;-72
2021/03/19 08:23:02;;;;;;;35.50;18.27;;;;;;;2.76;74.01;100215.05;1831929;77;21250;-74
2021/03/19 08:25:33;;;;;;;36.03;17.55;;;;;;;2.68;74.24;100216.05;1842188;77;21157;-71
2021/03/19 08:28:19;;;;;;;36.85;18.73;;;;;;;2.44;74.85;100220.68;1837240;77;21757;-71
2021/03/19 08:31:05;;;;;;;37.23;18.35;;;;;;;2.57;74.75;100222.47;1824220;76;21209;-71
2021/03/19 08:34:06;;;;;;;38.90;20.75;;;;;;;2.50;75.20;100232.00;1827168;77;21166;-67
2021/03/19 08:36:50;;;;;;;35.15;17.70;;;;;;;2.74;74.81;100224.77;1835342;77;21184;-70
2021/03/19 08:39:41;;;;;;;29.15;16.48;;;;;;;2.92;73.75;100214.86;1829250;77;21251;-70
2021/03/19 08:42:13;;;;;;;31.23;17.20;;;;;;;3.24;73.18;100215.22;1838722;77;21845;-72
2021/03/19 08:44:39;;;;;;;30.95;16.20;;;;;;;3.43;72.09;100219.14;1837326;77;21630;-70
2021/03/19 08:47:29;;;;;;;38.20;17.23;;;;;;;3.52;71.34;100217.19;1829072;77;21344;-70
2021/03/19 08:49:57;;;;;;;27.98;16.10;;;;;;;3.56;71.38;100220.44;1833106;77;21193;-72
2021/03/19 08:52:37;;;;;;;30.10;16.57;;;;;;;3.83;70.94;100216.30;1816311;77;21239;-71
2021/03/19 08:55:21;;;;;;;31.27;16.35;;;;;;;3.57;70.03;100216.41;1822053;77;21171;-74
2021/03/19 08:57:56;;;;;;;28.55;15.83;;;;;;;3.86;69.68;100215.25;1819269;77;21288;-72
2021/03/19 09:00:27;;;;;;;29.50;14.90;;;;;;;4.03;68.87;100215.33;1820473;77;21621;-73
2021/03/19 09:03:02;;;;;;;30.85;16.42;;;;;;;4.07;68.25;100218.91;1833618;77;21212;-71
2021/03/19 09:05:40;;;;;;;31.68;16.30;;;;;;;4.04;68.10;100226.13;1831625;77;21200;-73
2021/03/19 09:08:23;;;;;;;27.50;13.60;;;;;;;4.09;67.46;100217.50;1823619;77;21581;-73
2021/03/19 09:10:57;;;;;;;21.85;12.37;;;;;;;3.83;67.39;100220.22;1832324;77;21231;-70
2021/03/19 09:13:23;;;;;;;23.87;13.45;;;;;;;3.87;66.41;100220.81;1826608;77;21211;-71
2021/03/19 09:15:52;;;;;;;25.25;12.73;;;;;;;4.16;66.40;100208.23;1831508;77;27487;-70
2021/03/19 09:18:46;;;;;;;23.05;13.75;;;;;;;4.29;65.21;100205.09;1833838;77;21241;-71
2021/03/19 09:21:36;;;;;;;17.62;11.03;;;;;;;4.45;64.14;100198.71;1821311;77;21672;-71
2021/03/19 09:24:18;;;;;;;19.60;11.00;;;;;;;4.53;63.29;100195.52;1810062;77;21219;-71
2021/03/19 09:26:56;;;;;;;17.17;10.50;;;;;;;4.44;63.17;100200.95;1824822;77;21173;-71
2021/03/19 09:29:34;;;;;;;20.60;10.95;;;;;;;4.26;62.54;100195.34;1827405;77;21254;-73
2021/03/19 09:32:32;;;;;;;17.02;10.85;;;;;;;3.98;64.07;100208.28;1823123;77;21229;-75
2021/03/19 09:35:03;;;;;;;19.27;11.15;;;;;;;4.03;64.65;100207.01;1812631;77;22194;-70
2021/03/19 09:37:40;;;;;;;19.00;11.78;;;;;;;4.21;64.29;100199.60;1818758;77;21199;-73
2021/03/19 09:40:14;;;;;;;19.30;11.40;;;;;;;4.10;64.70;100205.63;1827773;77;21050;-76
2021/03/19 09:42:53;;;;;;;26.95;13.45;;;;;;;4.01;65.24;100210.67;1819638;77;21195;-72
2021/03/19 09:45:25;;;;;;;27.05;13.65;;;;;;;3.78;65.44;100206.18;1808523;77;21483;-71
2021/03/19 09:48:01;;;;;;;28.73;16.05;;;;;;;3.77;66.75;100219.35;1810964;77;21252;-72
2021/03/19 09:50:31;;;;;;;30.20;15.80;;;;;;;3.55;67.75;100216.97;1778647;78;21254;-71
2021/03/19 09:53:04;;;;;;;27.55;16.17;;;;;;;3.23;69.15;100216.18;1828382;77;21209;-72
2021/03/19 09:55:54;;;;;;;28.07;15.63;;;;;;;3.21;68.97;100227.17;1826343;77;21198;-69
2021/03/19 09:58:39;;;;;;;32.20;16.52;;;;;;;3.00;69.25;100226.91;1833326;77;21148;-73
2021/03/19 10:01:33;;;;;;;31.02;16.15;;;;;;;3.10;69.53;100220.57;1830677;77;21238;-70
2021/03/19 10:04:03;;;;;;;29.52;16.85;;;;;;;3.24;69.61;100228.27;1832273;77;21535;-70
2021/03/19 10:06:45;;;;;;;30.92;16.35;;;;;;;3.24;68.85;100228.27;1818738;77;21336;-70
2021/03/19 10:09:19;;;;;;;31.37;17.17;;;;;;;3.04;69.36;100219.69;1822483;77;21224;-70
2021/03/19 10:12:22;;;;;;;33.25;17.77;;;;;;;3.19;69.28;100225.15;1833106;77;21213;-73
2021/03/19 10:14:53;;;;;;;32.67;17.95;;;;;;;3.15;69.32;100226.30;1835402;77;21834;-72
2021/03/19 10:17:29;;;;;;;33.30;19.02;;;;;;;3.11;69.75;100230.08;1840266;77;21205;-72
2021/03/19 10:20:03;;;;;;;32.50;19.10;;;;;;;2.91;70.64;100225.41;1825130;77;21486;-71
2021/03/19 10:22:42;;;;;;;37.10;18.50;;;;;;;2.96;70.21;100222.00;1783268;77;21220;-70
2021/03/19 10:25:31;;;;;;;34.03;18.17;;;;;;;2.98;70.18;100224.02;1817219;77;21185;-73
2021/03/19 10:28:16;;;;;;;32.45;18.42;;;;;;;3.11;69.49;100222.25;1825203;77;21713;-74
2021/03/19 10:30:59;;;;;;;31.20;17.55;;;;;;;3.27;69.51;100223.80;1821369;77;21252;-72
2021/03/19 10:33:54;;;;;;;26.25;13.68;;;;;;;3.33;69.03;100224.67;1828042;77;21225;-72
2021/03/19 10:36:30;;;;;;;24.65;12.75;;;;;;;3.45;66.29;100230.33;1811292;77;21771;-72
2021/03/19 10:39:16;;;;;;;26.23;12.43;;;;;;;3.41;65.57;100232.30;1819758;77;21559;-72
2021/03/19 10:41:54;;;;;;;24.60;11.53;;;;;;;3.57;65.82;100232.08;1810719;77;21267;-71
2021/03/19 10:44:27;;;;;;;24.70;13.22;;;;;;;3.69;66.06;100225.61;1814602;77;21233;-73
2021/03/19 10:47:13;;;;;;;23.92;13.80;;;;;;;3.63;65.54;100229.96;1812588;77;21570;-73
2021/03/19 10:49:44;;;;;;;25.68;13.72;;;;;;;3.73;65.52;100227.06;1813420;77;21213;-73
2021/03/19 10:52:28;;;;;;;24.67;13.40;;;;;;;3.70;65.54;100229.41;1820944;77;21215;-72
2021/03/19 10:54:53;;;;;;;23.07;12.78;;;;;;;3.81;65.20;100233.02;1815948;77;21585;-73
2021/03/19 10:57:39;;;;;;;20.27;12.40;;;;;;;3.87;64.73;100240.41;1822462;77;21761;-72
2021/03/19 11:00:41;;;;;;;26.95;13.83;;;;;;;3.88;64.84;100229.85;1811086;77;21736;-73
2021/03/19 11:03:06;;;;;;;22.70;13.43;;;;;;;4.01;64.71;100225.04;1819572;77;21122;-74
2021/03/19 11:05:33;;;;;;;;;;;;;;;4.10;65.16;100225.67;1820917;77;21186;-73
2021/03/19 11:08:16;;;;;;;22.63;11.13;;;;;;;4.05;64.54;100219.96;1827476;77;20741;-72
2021/03/19 11:10:48;;;;;;;22.58;12.33;;;;;;;4.26;63.40;100206.63;1817624;77;21184;-72
2021/03/19 11:13:20;;;;;;;22.67;11.68;;;;;;;4.34;64.08;100206.53;1820768;77;21316;-72
2021/03/19 11:15:47;;;;;;;21.07;11.93;;;;;;;4.44;62.64;100214.88;1822204;77;21235;-71
2021/03/19 11:18:33;;;;;;;21.85;11.50;;;;;;;4.32;61.00;100214.48;1811391;77;21175;-71
2021/03/19 11:21:09;;;;;;;16.65;10.25;;;;;;;4.13;60.79;100215.00;1835098;77;21214;-72
2021/03/19 11:23:47;;;;;;;20.80;10.25;;;;;;;4.20;60.02;100216.22;1827142;77;21236;-72
2021/03/19 11:26:26;;;;;;;15.00;8.65;;;;;;;4.07;58.42;100219.37;1832880;77;21189;-73
2021/03/19 11:29:16;;;;;;;16.55;8.45;;;;;;;4.37;57.61;100208.44;1830457;77;21721;-72
2021/03/19 11:32:14;;;;;;;16.20;8.35;;;;;;;4.45;57.34;100206.55;1831749;77;21172;-72
2021/03/19 11:34:52;;;;;;;15.40;8.83;;;;;;;4.80;57.35;100201.72;1817421;77;21207;-72
2021/03/19 11:37:27;;;;;;;15.35;8.48;;;;;;;5.17;56.89;100203.66;1833503;77;21226;-72
2021/03/19 11:40:00;;;;;;;11.70;6.40;;;;;;;5.26;56.73;100209.94;1844142;77;21141;-73
2021/03/19 11:42:34;;;;;;;11.05;6.87;;;;;;;4.88;52.86;100217.69;1839198;77;21166;-72
2021/03/19 11:45:05;;;;;;;12.23;7.10;;;;;;;4.82;52.79;100219.47;1838349;77;21216;-74
2021/03/19 11:47:34;;;;;;;11.78;6.78;;;;;;;4.85;53.39;100212.69;1844063;77;21187;-72
2021/03/19 11:50:27;;;;;;;12.43;6.83;;;;;;;5.21;54.33;100206.86;1834185;77;21197;-73
2021/03/19 11:53:03;;;;;;;14.15;6.97;;;;;;;5.17;52.11;100213.27;1835138;77;21184;-71
2021/03/19 11:55:41;;;;;;;13.83;7.10;;;;;;;5.02;52.90;100203.05;1818726;77;21624;-72
2021/03/19 11:58:07;;;;;;;12.13;7.10;;;;;;;5.03;52.91;100208.66;1829011;77;21923;-74
2021/03/19 12:00:35;;;;;;;11.97;7.72;;;;;;;4.83;53.34;100204.10;1836544;77;22380;-71
2021/03/19 12:03:05;;;;;;;12.80;7.28;;;;;;;4.85;53.37;100205.66;1838179;77;21187;-71
2021/03/19 12:05:32;;;;;;;11.08;7.25;;;;;;;4.99;52.63;100204.59;1825376;77;21184;-69